Mont Aigoual, France

12:11 AM CET on December 11, 2016 (GMT +0100)
Aigoual | | Change Station

Elev 2398 ft 44.18 °N, 3.43 °E | Updated 0 second ago

Clear
Clear
26.8 °F
Feels Like 27 °F
N
0.0
Wind Variable Wind from SE
Gusts 0.0 mph

Today
High -- | Low -- °F
--% Chance of Precip.
Yesterday
High -- | Low -- °F
Precip. -- in
Pressure 30.30 in
Visibility -9999.0 miles
Clouds
Windchill 27 °F
Dew Point 20 °F
Humidity 76%
Rainfall 0.00 in
Snow Depth Not available.
8:10 AM 5:07 PM
Waxing Gibbous, 87% visible
METAR LFMT 102300Z AUTO 02002KT 4400 BR NSC 04/03 Q1026 TEMPO 0200 FG VV///
Pressure 30.30 in
Visibility -9999.0 miles
Clouds
Windchill 27 °F
Dew Point 20 °F
Humidity 76%
Rainfall 0.00 in
Snow Depth Not available.
8:10 AM 5:07 PM
Waxing Gibbous, 87% visible
METAR LFMT 102300Z AUTO 02002KT 4400 BR NSC 04/03 Q1026 TEMPO 0200 FG VV///

10-Day Weather Forecast

×

Almanac

Astronomy

Dec. 11, 2016 Rise Set
Actual Time
Civil Twilight
Nautical Twilight
Astronomical Twilight
Moon
Length of Visible Light
Length of Day
Tomorrow will be .
, % of the Moon is Illuminated

Today's Extremes

Country Highs Country Lows

Community

WunderPhotos

Upload Photos

1,956,670 photos uploaded!

WunderBlog® & News

Nearby

Air Quality

  Air Quality AQ Index Pollutant
Not available.

Snow Depth

Station Depth Elevation

Earthquake Activity

City Distance Mag. Time & Date
Minimum magnitude displayed is 2.5.

Coastal Water Temperatures

Place Temperature

Stations

Nearby Weather Stations

Station Location Temp. Windchill Dew Point Humidity Wind Precip. Elev Updated Type